Pagina principale
METAR-TAF:

METAR-TAF

Aeroporti :

Aeroporto Internazionale di Palau

Koror, Babeldaob, Palau

latitudine: 07-22N, longitudine: 134-32E, altezza: 54 m

Osservazione

Il bollettino è stato emesso 52 minuti fa, alle 08:50 UTC
Vento 3 kt da nord-est
Temperature 27°C
Umidità 84%
Pressione 1009 hPa
Visibilità: 24.1 km
Nubi sparse ad un'altezza di 1600 ft, Cumulonembo.
Nuvoloso ad un'altezza di 12000 ft
Nuvoloso ad un'altezza di 30000 ft

METAR: PTRO 170850Z 04003KT 15SM SCT016CB BKN120 BKN300 27/24 A2979 RMK CB ALQDS

Ora: 18:42 (09:42 UTC)

Previsione

Il bollettino è stato emesso 4 ore e 10 minuti fa, alle 05:32 UTC
Previsione valida dal 17 alle 06 UTC al 18 alle 06 UTC
Vento 8 kt da nord-ovest
Visibilità: 10 km
Nubi sparse ad un'altezza di 1700 ft
Nuvoloso ad un'altezza di 12000 ft
rovesci nelle vicinanze

TAF: PTRO 170532Z 1706/1806 32008KT P6SM VCSH SCT017 BKN120

Osservazioni e previsioni meteorologiche di più di 4000 aeroporti (messaggi METAR e TAF).

Le stazioni disponibili sono rappresentate dai dischi gialli e rossi sulla carta.

Puntare il mouse per vedere il nome della stazione.

Clicca sopra per visualizzare le osservazioni e previsioni meteorologiche.

Per cambiare la mappa : fare clic sui pulsanti verdi con una croce nera per ingrandire, il pulsante verde con un trattino per diminuire, o sulla freccia verde per le mappe adiacenti.


METAR-TAF: